createdAt,value
2018-08-23T00:01:29.652Z,25.60
2018-08-23T00:04:03.254Z,26.70
2018-08-23T00:06:31.979Z,25.13
2018-08-23T00:09:00.539Z,26.40
2018-08-23T00:11:31.754Z,25.60
2018-08-23T00:14:00.301Z,24.60
2018-08-23T00:16:35.295Z,24.07
2018-08-23T00:19:04.780Z,26.40
2018-08-23T00:21:37.916Z,24.97
2018-08-23T00:24:09.805Z,27.10
2018-08-23T00:26:39.809Z,26.73
2018-08-23T00:29:14.761Z,26.77
2018-08-23T00:31:43.397Z,27.50
2018-08-23T00:34:12.163Z,27.10
2018-08-23T00:36:40.754Z,26.80
2018-08-23T00:39:10.232Z,27.00
2018-08-23T00:41:38.980Z,28.63
2018-08-23T00:44:07.577Z,23.50
2018-08-23T00:46:36.466Z,26.60
2018-08-23T00:49:05.128Z,26.13
2018-08-23T00:51:38.066Z,26.10
2018-08-23T00:54:06.805Z,25.47
2018-08-23T00:56:35.440Z,24.57
2018-08-23T00:59:04.529Z,25.67
2018-08-23T01:01:33.728Z,25.20
2018-08-23T01:04:02.265Z,27.00
2018-08-23T01:06:40.124Z,26.17
2018-08-23T01:09:10.753Z,31.50
2018-08-23T01:11:40.270Z,27.30
2018-08-23T01:14:09.427Z,27.70
2018-08-23T01:16:38.083Z,27.00
2018-08-23T01:19:12.020Z,28.10
2018-08-23T01:22:00.483Z,27.30
2018-08-23T01:24:30.859Z,27.00
2018-08-23T01:26:59.462Z,27.87
2018-08-23T01:29:29.218Z,27.83
2018-08-23T01:32:16.825Z,27.60
2018-08-23T01:34:45.453Z,30.50
2018-08-23T01:37:24.642Z,27.57
2018-08-23T01:39:53.268Z,28.37
2018-08-23T01:42:25.015Z,30.33
2018-08-23T01:44:53.638Z,32.00
2018-08-23T01:47:22.359Z,31.43
2018-08-23T01:49:51.009Z,31.57
2018-08-23T01:52:19.639Z,30.07
2018-08-23T01:54:48.198Z,30.27
2018-08-23T01:57:21.308Z,32.17
2018-08-23T01:59:49.897Z,31.43
2018-08-23T02:02:18.559Z,30.10
2018-08-23T02:04:48.160Z,32.40
2018-08-23T02:07:16.771Z,30.33
2018-08-23T02:09:45.303Z,33.13
2018-08-23T02:12:14.014Z,31.37
2018-08-23T02:14:45.805Z,32.33
2018-08-23T02:17:15.022Z,32.47
2018-08-23T02:19:48.153Z,32.17
2018-08-23T02:22:16.835Z,33.50
2018-08-23T02:24:49.116Z,33.07
2018-08-23T02:27:19.345Z,33.00
2018-08-23T02:29:49.546Z,34.30
2018-08-23T02:32:18.158Z,36.40
2018-08-23T02:34:47.871Z,36.67
2018-08-23T02:37:17.420Z,34.87
2018-08-23T02:39:47.705Z,34.27
2018-08-23T02:42:18.135Z,34.90
2018-08-23T02:44:47.766Z,31.77
2018-08-23T02:47:16.813Z,35.13
2018-08-23T02:49:45.415Z,33.83
2018-08-23T02:52:14.127Z,33.03
2018-08-23T02:54:42.815Z,35.97
2018-08-23T02:57:12.267Z,35.10
2018-08-23T02:59:40.872Z,35.73
2018-08-23T03:02:14.111Z,35.60
2018-08-23T03:04:42.798Z,35.67
2018-08-23T03:07:11.424Z,36.13
2018-08-23T03:09:41.112Z,36.87
2018-08-23T03:12:13.010Z,34.07
2018-08-23T03:14:42.034Z,34.77
2018-08-23T03:17:20.812Z,35.40
2018-08-23T03:20:18.525Z,35.53
2018-08-23T03:22:48.496Z,35.83
2018-08-23T03:25:18.512Z,35.93
2018-08-23T03:27:47.079Z,37.17
2018-08-23T03:30:16.880Z,37.70
2018-08-23T03:32:45.508Z,40.77
2018-08-23T03:35:14.079Z,40.33
2018-08-23T03:37:42.619Z,38.30
2018-08-23T03:40:12.631Z,40.93
2018-08-23T03:42:41.429Z,40.30
2018-08-23T03:45:15.703Z,40.07
2018-08-23T03:47:49.610Z,38.90
2018-08-23T03:50:18.411Z,39.83
2018-08-23T03:52:48.360Z,40.50
2018-08-23T03:55:20.006Z,40.50
2018-08-23T03:57:52.675Z,39.67
2018-08-23T04:00:27.040Z,38.80
2018-08-23T04:02:56.082Z,37.83
2018-08-23T04:05:24.674Z,41.20
2018-08-23T04:07:53.226Z,40.43
2018-08-23T04:10:21.887Z,39.33
2018-08-23T04:12:50.495Z,39.17
2018-08-23T04:15:27.978Z,39.00
2018-08-23T04:17:56.668Z,39.13
2018-08-23T04:20:25.378Z,40.40
2018-08-23T04:22:54.106Z,39.37
2018-08-23T04:25:22.791Z,41.73
2018-08-23T04:27:51.425Z,40.23
2018-08-23T04:30:20.277Z,38.87
2018-08-23T04:32:49.658Z,40.03
2018-08-23T04:35:23.528Z,40.33
2018-08-23T04:37:52.515Z,39.33
2018-08-23T04:40:21.234Z,39.27
2018-08-23T04:42:49.944Z,39.97
2018-08-23T04:45:26.708Z,40.43
2018-08-23T04:48:00.576Z,39.03
2018-08-23T04:50:29.335Z,39.93
2018-08-23T04:52:58.124Z,40.83
2018-08-23T04:55:27.317Z,39.10
2018-08-23T04:57:56.824Z,38.27
2018-08-23T05:00:25.982Z,40.20
2018-08-23T05:02:54.671Z,39.47
2018-08-23T05:05:23.254Z,39.70
2018-08-23T05:07:52.113Z,37.90
2018-08-23T05:10:20.684Z,41.10
2018-08-23T05:12:49.276Z,39.00
2018-08-23T05:15:17.883Z,40.43
2018-08-23T05:17:46.450Z,38.20
2018-08-23T05:20:15.225Z,38.40
2018-08-23T05:22:51.692Z,39.10
2018-08-23T05:25:22.389Z,40.00
2018-08-23T05:28:07.313Z,40.73
2018-08-23T05:30:35.872Z,42.60
2018-08-23T05:33:21.251Z,40.67
2018-08-23T05:35:49.910Z,40.40
2018-08-23T05:38:19.266Z,40.63
2018-08-23T05:40:53.999Z,38.23
2018-08-23T05:43:23.401Z,39.60
2018-08-23T05:45:54.207Z,42.07
2018-08-23T05:48:32.098Z,40.60
2018-08-23T05:51:06.666Z,41.17
2018-08-23T05:53:39.640Z,42.03
2018-08-23T05:56:08.764Z,41.40
2018-08-23T05:58:37.334Z,41.27
2018-08-23T06:01:06.055Z,41.20
2018-08-23T06:03:36.090Z,39.47
2018-08-23T06:06:04.719Z,38.73
2018-08-23T06:08:33.364Z,39.70
2018-08-23T06:11:06.109Z,38.97
2018-08-23T06:13:34.788Z,38.93
2018-08-23T06:16:03.408Z,39.23
2018-08-23T06:18:31.941Z,39.07
2018-08-23T06:21:00.730Z,39.33
2018-08-23T06:26:43.505Z,43.90
2018-08-23T06:29:15.904Z,38.00
2018-08-23T06:31:50.634Z,39.17
2018-08-23T06:34:19.257Z,39.13
2018-08-23T06:36:48.230Z,41.30
2018-08-23T06:39:16.836Z,38.47
2018-08-23T06:41:45.672Z,39.70
2018-08-23T06:44:14.311Z,38.60
2018-08-23T06:46:42.913Z,39.47
2018-08-23T06:49:11.496Z,37.50
2018-08-23T06:51:40.193Z,38.10
2018-08-23T06:54:08.815Z,38.07
2018-08-23T06:56:38.696Z,37.13
2018-08-23T06:59:07.699Z,38.40
2018-08-23T07:01:41.546Z,38.57
2018-08-23T07:04:14.068Z,38.60
2018-08-23T07:06:42.803Z,37.20
2018-08-23T07:09:15.604Z,37.23
2018-08-23T07:11:44.394Z,38.93
2018-08-23T07:14:16.245Z,40.23
2018-08-23T07:16:46.209Z,39.70
2018-08-23T07:19:33.335Z,40.20
2018-08-23T07:22:02.940Z,39.98
2018-08-23T07:24:42.215Z,37.78
2018-08-23T07:27:11.929Z,36.00
2018-08-23T07:29:40.588Z,34.83
2018-08-23T07:32:13.454Z,35.68
2018-08-23T07:34:51.523Z,32.98
2018-08-23T07:37:20.951Z,31.45
2018-08-23T07:39:56.970Z,32.23
2018-08-23T07:42:28.154Z,30.75
2018-08-23T07:44:57.248Z,33.35
2018-08-23T07:47:26.027Z,33.58
2018-08-23T07:49:56.704Z,33.15
2018-08-23T07:52:26.314Z,32.03
2018-08-23T07:54:54.879Z,27.87
2018-08-23T07:57:23.487Z,31.02
2018-08-23T07:59:59.355Z,28.85
2018-08-23T08:02:28.585Z,26.27
2018-08-23T08:04:57.808Z,23.98
2018-08-23T08:07:27.768Z,24.20
2018-08-23T08:09:57.084Z,23.55
2018-08-23T08:12:39.230Z,21.87
2018-08-23T08:15:11.780Z,23.07
2018-08-23T08:17:40.349Z,21.55
2018-08-23T08:20:10.410Z,19.98
2018-08-23T08:22:39.258Z,18.80
2018-08-23T08:25:13.030Z,20.12
2018-08-23T08:27:41.756Z,20.40
2018-08-23T08:30:12.174Z,19.32
2018-08-23T08:32:40.956Z,17.57
2018-08-23T08:35:23.827Z,16.75
2018-08-23T08:37:52.473Z,19.27
2018-08-23T08:40:23.582Z,20.43
2018-08-23T08:42:52.146Z,18.80
2018-08-23T08:45:20.732Z,18.23
2018-08-23T08:47:49.349Z,20.52
2018-08-23T08:50:18.006Z,19.17
2018-08-23T08:52:46.562Z,18.32
2018-08-23T08:55:16.964Z,19.87
2018-08-23T08:57:47.645Z,19.75
2018-08-23T09:00:16.067Z,18.40
2018-08-23T09:02:44.814Z,18.15
2018-08-23T09:05:13.391Z,21.12
2018-08-23T09:07:44.177Z,20.12
2018-08-23T09:10:12.761Z,18.55
2018-08-23T09:12:47.760Z,21.90
2018-08-23T09:15:16.280Z,19.25
2018-08-23T09:17:45.872Z,19.77
2018-08-23T09:20:17.792Z,22.85
2018-08-23T09:22:50.948Z,21.93
2018-08-23T09:25:26.128Z,22.17
2018-08-23T09:27:54.718Z,19.52
2018-08-23T09:30:27.559Z,22.65
2018-08-23T09:32:56.410Z,24.95
2018-08-23T09:35:29.539Z,23.47
2018-08-23T09:38:00.358Z,22.42
2018-08-23T09:40:30.013Z,22.27
2018-08-23T09:43:03.067Z,22.25
2018-08-23T09:45:32.856Z,19.70
2018-08-23T09:48:01.346Z,22.52
2018-08-23T09:50:29.962Z,22.40
2018-08-23T09:52:58.620Z,25.20
2018-08-23T09:55:30.951Z,23.00
2018-08-23T09:57:59.819Z,19.98
2018-08-23T10:00:33.941Z,22.70
2018-08-23T10:03:07.665Z,20.68
2018-08-23T10:05:47.981Z,22.87
2018-08-23T10:08:23.331Z,23.02
2018-08-23T10:10:57.017Z,24.60
2018-08-23T10:13:30.785Z,23.62
2018-08-23T10:18:10.519Z,20.35
2018-08-23T10:20:46.308Z,20.77
2018-08-23T10:23:20.271Z,21.55
2018-08-23T10:25:50.083Z,20.52
2018-08-23T10:28:25.196Z,20.37
2018-08-23T10:30:54.226Z,19.77
2018-08-23T10:33:22.755Z,19.70
2018-08-23T10:35:53.649Z,21.42
2018-08-23T10:38:23.659Z,20.48
2018-08-23T10:40:53.346Z,15.95
2018-08-23T10:43:27.176Z,18.85
2018-08-23T10:45:59.921Z,17.10
2018-08-23T10:48:28.440Z,19.05
2018-08-23T10:50:57.095Z,18.48
2018-08-23T10:53:25.707Z,19.42
2018-08-23T10:55:54.243Z,17.30
2018-08-23T10:58:22.928Z,17.48
2018-08-23T11:00:51.582Z,17.48
2018-08-23T11:03:20.144Z,14.90
2018-08-23T11:05:48.660Z,15.83
2018-08-23T11:08:20.200Z,14.40
2018-08-23T11:10:53.851Z,14.05
2018-08-23T11:13:53.070Z,13.50
2018-08-23T11:16:26.926Z,11.33
2018-08-23T11:19:00.791Z,10.70
2018-08-23T11:21:29.472Z,9.90
2018-08-23T11:23:58.253Z,11.68
2018-08-23T11:26:26.867Z,11.85
2018-08-23T11:28:55.627Z,12.13
2018-08-23T11:31:30.217Z,10.13
2018-08-23T11:33:58.850Z,8.45
2018-08-23T11:36:27.467Z,8.00
2018-08-23T11:38:56.151Z,8.25
2018-08-23T11:41:24.848Z,9.05
2018-08-23T11:43:53.485Z,8.15
2018-08-23T11:46:23.096Z,7.53
2018-08-23T11:48:51.940Z,7.62
2018-08-23T11:51:20.997Z,7.15
2018-08-23T11:53:49.736Z,6.72
2018-08-23T11:56:18.383Z,7.30
2018-08-23T11:58:46.975Z,7.25
2018-08-23T12:01:17.487Z,7.00
2018-08-23T12:03:46.409Z,6.30
2018-08-23T12:06:16.390Z,6.92
2018-08-23T12:08:45.097Z,6.15
2018-08-23T12:11:13.679Z,6.17
2018-08-23T12:13:46.793Z,5.75
2018-08-23T12:16:15.427Z,5.97
2018-08-23T12:18:44.083Z,5.55
2018-08-23T12:21:12.664Z,5.03
2018-08-23T12:23:41.246Z,4.67
2018-08-23T12:26:09.990Z,5.00
2018-08-23T12:28:43.567Z,5.20
2018-08-23T12:31:12.158Z,5.53
2018-08-23T12:33:40.684Z,5.33
2018-08-23T12:36:09.932Z,6.00
2018-08-23T12:38:43.708Z,5.37
2018-08-23T12:41:17.525Z,5.55
2018-08-23T12:43:47.791Z,5.40
2018-08-23T12:46:17.021Z,6.40
2018-08-23T12:48:46.311Z,6.15
2018-08-23T12:51:14.940Z,6.53
2018-08-23T12:53:43.588Z,6.25
2018-08-23T12:56:12.280Z,6.05
2018-08-23T12:58:41.902Z,6.90
2018-08-23T13:01:10.515Z,5.05
2018-08-23T13:03:39.101Z,5.22
2018-08-23T13:06:07.702Z,5.28
2018-08-23T13:08:36.338Z,5.50
2018-08-23T13:11:04.985Z,4.40
2018-08-23T13:13:33.436Z,4.80
2018-08-23T13:16:02.023Z,5.30
2018-08-23T13:18:30.567Z,4.75
2018-08-23T13:20:59.084Z,4.87
2018-08-23T13:23:27.806Z,5.50
2018-08-23T13:25:57.505Z,5.10
2018-08-23T13:28:27.347Z,5.55
2018-08-23T13:30:55.875Z,5.40
2018-08-23T13:33:25.652Z,5.70
2018-08-23T13:35:54.223Z,5.62
2018-08-23T13:38:22.714Z,5.80
2018-08-23T13:40:51.300Z,6.25
2018-08-23T13:43:19.880Z,6.10
2018-08-23T13:45:48.683Z,6.95
2018-08-23T13:48:17.624Z,6.40
2018-08-23T13:50:46.176Z,6.78
2018-08-23T13:53:14.754Z,6.60
2018-08-23T13:55:43.354Z,6.90
2018-08-23T13:58:11.877Z,6.17
2018-08-23T14:00:41.557Z,6.50
2018-08-23T14:03:10.947Z,6.35
2018-08-23T14:05:40.627Z,7.08
2018-08-23T14:08:09.605Z,6.15
2018-08-23T14:10:38.146Z,6.75
2018-08-23T14:13:06.753Z,6.20
2018-08-23T14:15:40.479Z,6.28
2018-08-23T14:18:09.123Z,5.70
2018-08-23T14:20:37.728Z,6.10
2018-08-23T14:23:06.205Z,6.37
2018-08-23T14:25:34.742Z,6.20
2018-08-23T14:28:03.234Z,6.70
2018-08-23T14:30:31.743Z,6.92
2018-08-23T14:33:00.372Z,7.08
2018-08-23T14:35:29.084Z,6.22
2018-08-23T14:37:57.681Z,6.37
2018-08-23T14:40:26.239Z,7.65
2018-08-23T14:42:54.755Z,7.33
2018-08-23T14:45:28.552Z,7.35
2018-08-23T14:48:02.484Z,7.22
2018-08-23T14:50:31.354Z,7.15
2018-08-23T14:52:59.879Z,7.28
2018-08-23T14:55:33.506Z,8.05
2018-08-23T14:58:02.155Z,7.33
2018-08-23T15:00:31.173Z,8.17
2018-08-23T15:02:59.937Z,7.40
2018-08-23T15:05:28.600Z,7.78
2018-08-23T15:07:57.172Z,8.43
2018-08-23T15:10:25.916Z,8.63
2018-08-23T15:12:54.525Z,8.90
2018-08-23T15:15:28.478Z,8.30
2018-08-23T15:17:57.215Z,8.67
2018-08-23T15:20:25.807Z,8.60
2018-08-23T15:22:54.586Z,8.83
2018-08-23T15:25:23.311Z,10.23
2018-08-23T15:27:51.875Z,9.63
2018-08-23T15:30:20.513Z,9.97
2018-08-23T15:32:49.182Z,9.37
2018-08-23T15:35:17.822Z,10.10
2018-08-23T15:37:46.428Z,9.80
2018-08-23T15:40:15.076Z,10.53
2018-08-23T15:42:43.649Z,10.70
2018-08-23T15:45:12.243Z,10.83
2018-08-23T15:47:40.963Z,10.00
2018-08-23T15:50:09.694Z,10.53
2018-08-23T15:52:38.383Z,10.97
2018-08-23T15:55:07.377Z,10.97
2018-08-23T15:57:38.058Z,10.73
2018-08-23T16:00:07.256Z,11.00
2018-08-23T16:02:35.817Z,10.30
2018-08-23T16:05:04.440Z,10.47
2018-08-23T16:07:33.033Z,11.20
2018-08-23T16:10:02.081Z,10.57
2018-08-23T16:12:30.733Z,10.67
2018-08-23T16:14:59.264Z,12.60
2018-08-23T16:17:32.886Z,12.87
2018-08-23T16:20:06.818Z,10.93
2018-08-23T16:22:35.431Z,11.63
2018-08-23T16:25:04.058Z,11.47
2018-08-23T16:27:32.659Z,12.00
2018-08-23T16:30:01.171Z,11.33
2018-08-23T16:32:34.127Z,10.93
2018-08-23T16:35:02.777Z,11.60
2018-08-23T16:37:32.342Z,11.53
2018-08-23T16:40:01.046Z,11.13
2018-08-23T16:42:30.235Z,11.23
2018-08-23T16:44:58.903Z,10.80
2018-08-23T16:47:27.730Z,11.17
2018-08-23T16:49:56.493Z,10.90
2018-08-23T16:52:25.200Z,11.43
2018-08-23T16:54:53.822Z,10.00
2018-08-23T16:57:22.428Z,10.57
2018-08-23T16:59:51.139Z,12.03
2018-08-23T17:02:19.886Z,9.90
2018-08-23T17:04:49.263Z,10.77
2018-08-23T17:07:18.351Z,11.07
2018-08-23T17:09:47.094Z,11.03
2018-08-23T17:12:16.102Z,10.60
2018-08-23T17:14:44.782Z,11.20
2018-08-23T17:17:18.717Z,9.60
2018-08-23T17:22:31.195Z,10.30
2018-08-23T17:25:00.146Z,9.20
2018-08-23T17:27:29.012Z,9.23
2018-08-23T17:29:57.807Z,7.13
2018-08-23T17:32:26.475Z,7.03
2018-08-23T17:34:55.751Z,6.90
2018-08-23T17:37:24.464Z,6.97
2018-08-23T17:39:53.530Z,6.77
2018-08-23T17:42:26.518Z,6.73
2018-08-23T17:44:55.154Z,6.63
2018-08-23T17:47:24.217Z,6.67
2018-08-23T17:49:53.341Z,7.33
2018-08-23T17:52:22.093Z,7.07
2018-08-23T17:54:51.014Z,7.20
2018-08-23T17:57:19.627Z,7.20
2018-08-23T17:59:48.433Z,7.07
2018-08-23T18:02:17.773Z,6.50
2018-08-23T18:04:46.638Z,6.70
2018-08-23T18:07:15.331Z,7.77
2018-08-23T18:09:44.035Z,8.07
2018-08-23T18:12:12.843Z,7.27
2018-08-23T18:14:41.590Z,7.63
2018-08-23T18:17:10.525Z,8.50
2018-08-23T18:19:39.353Z,7.50
2018-08-23T18:22:08.004Z,7.43
2018-08-23T18:24:36.733Z,8.33
2018-08-23T18:27:05.580Z,7.57
2018-08-23T18:29:34.324Z,7.87
2018-08-23T18:32:03.103Z,7.33
2018-08-23T18:34:31.956Z,8.90
2018-08-23T18:37:00.570Z,10.00
2018-08-23T18:39:29.159Z,7.60
2018-08-23T18:41:57.856Z,7.83
2018-08-23T18:44:26.456Z,7.10
2018-08-23T18:46:55.178Z,7.20
2018-08-23T18:49:23.794Z,6.90
2018-08-23T18:51:52.315Z,8.50
2018-08-23T18:54:21.017Z,7.17
2018-08-23T18:56:49.737Z,7.20
2018-08-23T18:59:18.484Z,6.63
2018-08-23T19:01:47.227Z,6.87
2018-08-23T19:04:16.031Z,6.97
2018-08-23T19:06:44.623Z,6.00
2018-08-23T19:09:14.314Z,6.00
2018-08-23T19:11:43.237Z,6.43
2018-08-23T19:14:11.946Z,5.80
2018-08-23T19:16:45.635Z,5.17
2018-08-23T19:19:14.340Z,6.63
2018-08-23T19:21:43.395Z,5.37
2018-08-23T19:24:12.384Z,6.37
2018-08-23T19:26:41.890Z,5.37
2018-08-23T19:29:10.947Z,6.20
2018-08-23T19:31:39.675Z,5.33
2018-08-23T19:34:08.446Z,5.07
2018-08-23T19:36:37.267Z,5.37
2018-08-23T19:39:12.582Z,5.00
2018-08-23T19:41:41.324Z,5.27
2018-08-23T19:44:09.923Z,5.40
2018-08-23T19:46:43.835Z,6.37
2018-08-23T19:49:17.698Z,6.00
2018-08-23T19:51:46.320Z,5.77
2018-08-23T19:54:15.025Z,5.57
2018-08-23T19:56:43.688Z,6.33
2018-08-23T19:59:12.442Z,5.23
2018-08-23T20:01:41.033Z,5.93
2018-08-23T20:04:09.660Z,6.37
2018-08-23T20:06:38.380Z,6.17
2018-08-23T20:09:08.785Z,6.13
2018-08-23T20:11:37.325Z,5.83
2018-08-23T20:14:05.936Z,6.20
2018-08-23T20:16:34.588Z,5.73
2018-08-23T20:19:03.993Z,5.27
2018-08-23T20:21:32.549Z,5.17
2018-08-23T20:24:01.218Z,5.43
2018-08-23T20:26:29.900Z,4.60
2018-08-23T20:28:59.293Z,4.47
2018-08-23T20:31:28.102Z,4.97
2018-08-23T20:33:58.359Z,3.73
2018-08-23T20:36:28.031Z,4.87
2018-08-23T20:38:57.106Z,3.60
2018-08-23T20:41:30.529Z,3.33
2018-08-23T20:43:59.183Z,4.37
2018-08-23T20:46:27.819Z,3.03
2018-08-23T20:48:56.322Z,3.23
2018-08-23T20:51:24.838Z,3.87
2018-08-23T20:53:53.472Z,3.50
2018-08-23T20:56:21.955Z,2.97
2018-08-23T20:58:50.542Z,2.87
2018-08-23T21:01:19.078Z,3.10
2018-08-23T21:03:47.761Z,2.87
2018-08-23T21:06:16.388Z,3.70
2018-08-23T21:08:45.023Z,3.77
2018-08-23T21:11:13.598Z,3.43
2018-08-23T21:13:42.191Z,3.00
2018-08-23T21:16:10.915Z,3.10
2018-08-23T21:18:39.553Z,3.43
2018-08-23T21:21:08.293Z,3.10
2018-08-23T21:23:36.940Z,3.60
2018-08-23T21:26:05.627Z,3.03
2018-08-23T21:28:34.305Z,3.30
2018-08-23T21:31:03.608Z,3.10
2018-08-23T21:33:32.159Z,2.53
2018-08-23T21:36:00.768Z,2.90
2018-08-23T21:38:29.410Z,2.67
2018-08-23T21:40:58.096Z,2.70
2018-08-23T21:43:26.654Z,2.40
2018-08-23T21:45:55.190Z,2.80
2018-08-23T21:48:23.844Z,2.70
2018-08-23T21:50:52.485Z,2.40
2018-08-23T21:53:21.059Z,2.40
2018-08-23T21:55:49.710Z,2.57
2018-08-23T21:58:18.293Z,2.77
2018-08-23T22:00:51.985Z,2.80
2018-08-23T22:03:20.579Z,2.30
2018-08-23T22:05:49.376Z,3.10
2018-08-23T22:08:17.969Z,2.30
2018-08-23T22:10:46.551Z,2.90
2018-08-23T22:13:15.154Z,2.43
2018-08-23T22:15:46.744Z,3.00
2018-08-23T22:18:15.859Z,2.43
2018-08-23T22:20:44.524Z,2.20
2018-08-23T22:23:13.543Z,2.23
2018-08-23T22:25:42.267Z,2.20
2018-08-23T22:28:11.306Z,2.03
2018-08-23T22:30:40.607Z,2.17
2018-08-23T22:33:10.300Z,1.93
2018-08-23T22:35:38.956Z,2.20
2018-08-23T22:38:07.922Z,2.00
2018-08-23T22:40:36.924Z,2.10
2018-08-23T22:43:05.578Z,2.13
2018-08-23T22:45:34.212Z,2.00
2018-08-23T22:48:02.864Z,1.53
2018-08-23T22:50:31.594Z,1.90
2018-08-23T22:53:00.158Z,1.70
2018-08-23T22:55:28.827Z,1.73
2018-08-23T22:57:57.652Z,1.60
2018-08-23T23:00:42.632Z,1.80
2018-08-23T23:03:16.537Z,1.80
2018-08-23T23:05:45.303Z,2.17
2018-08-23T23:08:13.909Z,1.77
2018-08-23T23:10:42.706Z,1.70
2018-08-23T23:13:11.356Z,1.73
2018-08-23T23:15:40.016Z,1.80
2018-08-23T23:18:08.626Z,1.80
2018-08-23T23:20:37.283Z,2.00
2018-08-23T23:23:05.923Z,1.50
2018-08-23T23:25:34.558Z,1.50
2018-08-23T23:28:03.125Z,1.70
2018-08-23T23:30:31.711Z,1.80
2018-08-23T23:33:00.293Z,1.97
2018-08-23T23:35:28.880Z,1.60
2018-08-23T23:37:57.446Z,1.63
2018-08-23T23:40:26.010Z,2.00
2018-08-23T23:42:54.673Z,1.80
2018-08-23T23:45:23.328Z,1.67
2018-08-23T23:47:51.947Z,1.90
2018-08-23T23:50:20.669Z,1.70
2018-08-23T23:52:49.269Z,1.63
2018-08-23T23:55:17.911Z,1.90
2018-08-23T23:57:46.519Z,1.70
